Time;durP1;ratioP1;P1;durP2;ratioP2;P2;SDS_P1;SDS_P2;PMS_P1;PMS_P2;Temp;Humidity;BMP_temperature;BMP_pressure;BME280_temperature;BME280_humidity;BME280_pressure;Samples;Min_cycle;Max_cycle;Signal;HPM_P1;HPM_P2
2022/11/09 00:01:02;;;;;;;90.32;41.48;;;;;;;1.95;100.00;100815.84;1638474;86;21197;-65
2022/11/09 00:03:28;;;;;;;93.58;43.78;;;;;;;1.91;100.00;100814.50;1639480;87;21096;-65
2022/11/09 00:05:56;;;;;;;93.60;41.95;;;;;;;1.91;100.00;100817.09;1639224;87;21060;-66
2022/11/09 00:08:24;;;;;;;79.10;40.40;;;;;;;1.96;100.00;100819.33;1639090;87;21121;-66
2022/11/09 00:10:51;;;;;;;84.35;42.25;;;;;;;1.92;100.00;100820.16;1639236;86;21040;-66
2022/11/09 00:13:19;;;;;;;93.97;45.88;;;;;;;1.89;100.00;100811.91;1639073;87;21057;-66
2022/11/09 00:15:45;;;;;;;76.40;37.15;;;;;;;1.88;100.00;100818.80;1639204;87;21022;-66
2022/11/09 00:18:12;;;;;;;92.22;43.15;;;;;;;1.88;100.00;100808.41;1639209;86;21085;-65
2022/11/09 00:20:38;;;;;;;95.83;46.00;;;;;;;1.91;100.00;100815.80;1639426;87;21105;-66
2022/11/09 00:23:06;;;;;;;75.57;36.15;;;;;;;1.95;100.00;100816.27;1641785;87;21081;-66
2022/11/09 00:25:33;;;;;;;89.37;39.48;;;;;;;1.98;100.00;100818.89;1639478;86;21093;-66
2022/11/09 00:28:00;;;;;;;67.00;35.05;;;;;;;1.98;100.00;100819.78;1639179;87;21116;-67
2022/11/09 00:30:27;;;;;;;88.15;41.75;;;;;;;1.91;100.00;100823.59;1639107;87;21544;-67
2022/11/09 00:32:54;;;;;;;78.33;40.88;;;;;;;1.94;100.00;100824.94;1639280;87;21133;-65
2022/11/09 00:35:21;;;;;;;84.40;39.38;;;;;;;1.89;100.00;100824.45;1679827;85;21068;-65
2022/11/09 00:37:47;;;;;;;75.92;39.48;;;;;;;1.85;100.00;100827.88;1674532;84;21128;-65
2022/11/09 00:40:14;;;;;;;73.30;36.33;;;;;;;1.85;100.00;100828.31;1674482;84;21155;-66
2022/11/09 00:42:41;;;;;;;85.10;40.00;;;;;;;1.81;100.00;100827.39;1674565;84;21121;-66
2022/11/09 00:45:08;;;;;;;97.47;44.38;;;;;;;1.75;100.00;100833.84;1698724;83;21615;-66
2022/11/09 00:47:35;;;;;;;82.65;40.63;;;;;;;1.68;100.00;100834.64;1680875;85;21117;-66
2022/11/09 00:50:04;;;;;;;85.72;40.12;;;;;;;1.77;100.00;100836.44;1680417;85;21580;-65
2022/11/09 00:52:31;;;;;;;81.20;41.23;;;;;;;1.86;100.00;100836.13;1720344;83;21158;-66
2022/11/09 00:54:57;;;;;;;72.87;37.78;;;;;;;1.85;100.00;100833.07;1720395;83;21095;-66
2022/11/09 00:57:24;;;;;;;83.95;40.05;;;;;;;1.86;100.00;100833.53;1720393;83;21902;-65
2022/11/09 00:59:52;;;;;;;70.62;35.13;;;;;;;1.77;100.00;100832.14;1720253;83;21523;-66
2022/11/09 01:02:19;;;;;;;79.82;39.60;;;;;;;1.75;100.00;100836.44;1720523;83;21084;-65
2022/11/09 01:04:47;;;;;;;80.95;39.95;;;;;;;1.72;100.00;100838.98;1718359;83;21068;-65
2022/11/09 01:07:14;;;;;;;83.45;39.45;;;;;;;1.71;100.00;100834.66;1720090;83;21091;-64
2022/11/09 01:09:41;;;;;;;81.60;40.35;;;;;;;1.71;100.00;100840.30;1718999;83;21130;-66
2022/11/09 01:12:07;;;;;;;75.65;36.88;;;;;;;1.63;100.00;100837.59;1720263;83;21024;-65
2022/11/09 01:14:34;;;;;;;70.85;37.20;;;;;;;1.51;100.00;100835.73;1720507;83;21035;-65
2022/11/09 01:17:02;;;;;;;82.53;40.92;;;;;;;1.49;100.00;100834.84;1720311;83;21045;-66
2022/11/09 01:19:29;;;;;;;72.20;36.73;;;;;;;1.58;100.00;100836.68;1720512;82;21063;-66
2022/11/09 01:21:56;;;;;;;83.47;39.63;;;;;;;1.59;100.00;100835.84;1720377;83;21616;-65
2022/11/09 01:24:23;;;;;;;70.67;37.17;;;;;;;1.58;100.00;100832.78;1720320;83;21020;-66
2022/11/09 01:26:51;;;;;;;62.40;32.88;;;;;;;1.58;100.00;100832.78;1720322;83;21585;-66
2022/11/09 01:29:19;;;;;;;74.12;36.30;;;;;;;1.54;100.00;100836.19;1720086;82;21413;-67
2022/11/09 01:31:47;;;;;;;67.92;34.90;;;;;;;1.57;100.00;100834.95;1720231;83;21676;-65
2022/11/09 01:34:16;;;;;;;73.28;37.30;;;;;;;1.57;100.00;100833.66;1720122;83;21158;-65
2022/11/09 01:36:42;;;;;;;73.50;34.95;;;;;;;1.54;100.00;100830.60;1720441;83;21565;-66
2022/11/09 01:39:09;;;;;;;68.07;35.40;;;;;;;1.52;100.00;100834.00;1720126;83;21272;-65
2022/11/09 01:41:37;;;;;;;72.90;37.00;;;;;;;1.50;100.00;100838.34;1720395;83;21142;-65
2022/11/09 01:44:12;;;;;;;70.22;37.88;;;;;;;1.40;100.00;100846.02;1718521;83;21131;-66
2022/11/09 01:46:55;;;;;;;66.47;33.13;;;;;;;1.40;100.00;100851.21;1702671;83;21905;-66
2022/11/09 01:49:45;;;;;;;;;;;;;;;1.44;100.00;100846.91;1706652;83;21576;-67
2022/11/09 01:52:23;;;;;;;70.25;33.70;;;;;;;1.44;100.00;100845.17;1720487;83;20211;-66
2022/11/09 01:54:56;;;;;;;68.60;34.88;;;;;;;1.43;100.00;100849.08;1720371;83;21096;-65
2022/11/09 01:57:27;;;;;;;79.55;39.20;;;;;;;1.43;100.00;100846.05;1720410;83;21614;-66
2022/11/09 02:00:03;;;;;;;66.45;34.35;;;;;;;1.40;100.00;100850.31;1720489;83;21349;-66
2022/11/09 02:02:33;;;;;;;77.80;37.25;;;;;;;1.34;100.00;100852.42;1718705;83;21072;-66
2022/11/09 02:05:08;;;;;;;73.80;36.50;;;;;;;1.36;100.00;100848.13;1720285;82;21032;-65
2022/11/09 02:07:36;;;;;;;66.82;34.43;;;;;;;1.33;100.00;100851.95;1720109;83;21020;-64
2022/11/09 02:10:14;;;;;;;75.40;37.42;;;;;;;1.32;100.00;100847.63;1720608;82;21068;-65
2022/11/09 02:12:42;;;;;;;70.78;35.98;;;;;;;1.27;100.00;100848.02;1720124;83;21546;-66
2022/11/09 02:15:09;;;;;;;68.17;35.00;;;;;;;1.26;100.00;100852.73;1720530;83;21060;-65
2022/11/09 02:17:37;;;;;;;69.80;34.90;;;;;;;1.23;100.00;100852.71;1720742;83;21099;-66
2022/11/09 02:20:13;;;;;;;67.58;33.33;;;;;;;1.30;100.00;100848.04;1720657;83;21144;-65
2022/11/09 02:22:40;;;;;;;62.98;31.68;;;;;;;1.25;100.00;100848.42;1695151;83;21127;-65
2022/11/09 02:25:08;;;;;;;63.50;34.48;;;;;;;1.15;100.00;100854.33;1720607;83;21087;-64
2022/11/09 02:27:37;;;;;;;;;;;;;;;1.15;100.00;100852.62;1690831;83;21060;-65
2022/11/09 02:30:07;;;;;;;70.10;35.68;;;;;;;1.12;100.00;100858.19;1720534;83;20169;-65
2022/11/09 02:32:35;;;;;;;76.07;37.50;;;;;;;1.12;100.00;100858.19;1721148;83;21021;-65
2022/11/09 02:35:02;;;;;;;57.50;30.45;;;;;;;1.18;100.00;100855.25;1720247;83;21111;-66
2022/11/09 02:37:43;;;;;;;85.70;41.77;;;;;;;1.16;100.00;100853.06;1720567;83;21489;-66
2022/11/09 02:40:25;;;;;;;72.53;37.15;;;;;;;1.19;100.00;100858.27;1720344;83;21044;-65
2022/11/09 02:42:52;;;;;;;;;;;;;;;1.14;100.00;100853.89;1723265;83;22193;-66
2022/11/09 02:45:20;;;;;;;80.20;38.73;;;;;;;1.14;100.00;100852.59;1709345;83;20196;-65
2022/11/09 02:47:47;;;;;;;66.28;33.83;;;;;;;1.12;100.00;100856.45;1702751;83;21078;-65
2022/11/09 02:50:15;;;;;;;74.75;38.13;;;;;;;1.09;100.00;100856.86;1702609;84;21165;-66
2022/11/09 02:52:42;;;;;;;79.03;40.55;;;;;;;1.13;100.00;100856.02;1702805;84;21643;-65
2022/11/09 02:55:09;;;;;;;64.12;34.65;;;;;;;1.04;100.00;100856.36;1702925;84;21049;-66
2022/11/09 02:57:35;;;;;;;74.12;38.65;;;;;;;1.13;100.00;100858.62;1706576;83;21109;-66
2022/11/09 03:00:04;;;;;;;62.33;32.58;;;;;;;1.16;100.00;100854.78;1703231;83;21113;-65
2022/11/09 03:02:31;;;;;;;61.28;31.62;;;;;;;1.09;100.00;100851.23;1720675;83;21663;-65
2022/11/09 03:04:58;;;;;;;76.05;37.20;;;;;;;1.12;100.00;100858.19;1720411;83;21091;-66
2022/11/09 03:07:25;;;;;;;53.78;30.08;;;;;;;1.13;100.00;100855.62;1720590;83;21016;-65
2022/11/09 03:09:55;;;;;;;69.75;37.17;;;;;;;1.14;100.00;100847.41;1718920;83;21542;-64
2022/11/09 03:12:28;;;;;;;65.97;35.00;;;;;;;1.15;100.00;100853.92;1720722;83;21103;-66
2022/11/09 03:15:03;;;;;;;58.73;32.50;;;;;;;1.11;100.00;100848.67;1717511;83;21336;-66
2022/11/09 03:17:31;;;;;;;63.68;33.95;;;;;;;1.09;100.00;100850.37;1720349;83;21103;-66
2022/11/09 03:19:58;;;;;;;56.05;29.98;;;;;;;1.05;100.00;100847.72;1717454;83;21020;-66
2022/11/09 03:22:26;;;;;;;66.80;33.23;;;;;;;1.06;100.00;100842.12;1720542;83;21025;-66
2022/11/09 03:24:54;;;;;;;74.22;38.63;;;;;;;1.04;100.00;100843.39;1720303;83;21047;-67
2022/11/09 03:27:21;;;;;;;59.42;32.35;;;;;;;1.04;100.00;100843.39;1720717;83;21203;-67
2022/11/09 03:29:50;;;;;;;75.57;38.85;;;;;;;1.00;100.00;100842.91;1720186;83;21313;-66
2022/11/09 03:32:16;;;;;;;74.05;38.30;;;;;;;0.99;100.00;100841.17;1720712;82;21103;-66
2022/11/09 03:34:43;;;;;;;66.45;33.92;;;;;;;0.97;100.00;100842.87;1720303;82;21068;-66
2022/11/09 03:37:11;;;;;;;77.47;39.30;;;;;;;0.86;100.00;100849.63;1720643;83;21581;-66
2022/11/09 03:39:38;;;;;;;72.05;38.05;;;;;;;0.88;100.00;100852.25;1720325;83;21704;-65
2022/11/09 03:42:04;;;;;;;71.97;37.73;;;;;;;0.90;100.00;100853.12;1720258;83;21064;-67
2022/11/09 03:44:31;;;;;;;80.45;39.23;;;;;;;0.83;100.00;100848.30;1715422;83;21050;-66
2022/11/09 03:46:57;;;;;;;72.60;36.98;;;;;;;0.84;100.00;100854.78;1702640;84;21053;-66
2022/11/09 03:49:24;;;;;;;73.12;38.75;;;;;;;0.77;100.00;100853.39;1702668;84;21062;-66
2022/11/09 03:51:50;;;;;;;65.60;33.85;;;;;;;0.74;100.00;100850.77;1703019;83;21109;-66
2022/11/09 03:54:17;;;;;;;82.17;41.08;;;;;;;0.71;100.00;100846.80;1702641;84;21022;-66
2022/11/09 03:56:44;;;;;;;78.83;40.60;;;;;;;0.72;100.00;100849.44;1702742;83;21090;-65
2022/11/09 03:59:10;;;;;;;82.40;40.73;;;;;;;0.63;100.00;100847.56;1702773;83;21066;-66
2022/11/09 04:01:37;;;;;;;76.77;39.90;;;;;;;0.71;100.00;100849.39;1702904;84;21065;-66
2022/11/09 04:04:04;;;;;;;80.95;43.42;;;;;;;0.78;100.00;100847.34;1702828;84;21554;-66
2022/11/09 04:06:31;;;;;;;80.72;42.20;;;;;;;0.77;100.00;100853.39;1702706;82;21555;-66
2022/11/09 04:08:58;;;;;;;76.92;40.85;;;;;;;0.83;100.00;100850.89;1702758;82;21006;-65
2022/11/09 04:11:25;;;;;;;67.20;36.38;;;;;;;0.83;100.00;100846.57;1702665;83;21074;-65
2022/11/09 04:13:51;;;;;;;73.45;39.88;;;;;;;0.81;100.00;100859.94;1703045;83;21065;-65
2022/11/09 04:16:20;;;;;;;74.45;38.83;;;;;;;0.85;100.00;100859.53;1702711;83;21552;-66
2022/11/09 04:18:47;;;;;;;70.22;35.95;;;;;;;0.84;100.00;100855.22;1702827;84;21018;-66
2022/11/09 04:21:14;;;;;;;67.37;35.00;;;;;;;0.81;100.00;100856.48;1702912;82;21604;-66
2022/11/09 04:23:41;;;;;;;59.63;33.08;;;;;;;0.78;100.00;100860.30;1685018;84;21093;-66
2022/11/09 04:26:08;;;;;;;76.40;40.58;;;;;;;0.75;100.00;100869.34;1703209;84;21069;-66
2022/11/09 04:28:34;;;;;;;79.97;40.78;;;;;;;0.72;100.00;100868.02;1703179;83;21147;-66
2022/11/09 04:31:01;;;;;;;64.82;34.80;;;;;;;0.76;100.00;100872.37;1702792;84;21061;-67
2022/11/09 04:33:28;;;;;;;66.25;36.08;;;;;;;0.73;100.00;100877.52;1702920;84;21037;-66
2022/11/09 04:35:54;;;;;;;61.15;32.28;;;;;;;0.71;100.00;100883.10;1702826;83;21605;-66
2022/11/09 04:38:21;;;;;;;74.80;37.73;;;;;;;0.68;100.00;100877.45;1703069;84;21569;-67
2022/11/09 04:40:47;;;;;;;72.87;39.42;;;;;;;0.67;100.00;100878.71;1703022;84;21294;-65
2022/11/09 04:43:14;;;;;;;69.25;36.65;;;;;;;0.67;100.00;100882.60;1702965;84;21998;-66
2022/11/09 04:45:41;;;;;;;74.95;37.75;;;;;;;0.63;100.00;100889.05;1716360;83;21055;-66
2022/11/09 04:48:09;;;;;;;63.78;32.28;;;;;;;0.58;100.00;100889.41;1720756;83;21040;-65
2022/11/09 04:50:37;;;;;;;72.62;36.10;;;;;;;0.64;100.00;100887.31;1720526;83;21072;-67
2022/11/09 04:53:10;;;;;;;78.90;42.53;;;;;;;0.69;100.00;100893.87;1720621;83;21108;-66
2022/11/09 04:55:36;;;;;;;65.75;35.25;;;;;;;0.66;100.00;100892.53;1720414;83;21056;-67
2022/11/09 04:58:03;;;;;;;82.10;42.53;;;;;;;0.70;100.00;100895.20;1682025;85;21627;-66
2022/11/09 05:00:30;;;;;;;73.47;40.95;;;;;;;0.71;100.00;100895.63;1680694;85;21085;-65
2022/11/09 05:03:01;;;;;;;78.12;39.55;;;;;;;0.68;100.00;100906.40;1667024;85;21078;-66
2022/11/09 05:05:32;;;;;;;83.52;41.90;;;;;;;0.73;100.00;100907.33;1680567;85;21592;-65
2022/11/09 05:07:56;;;;;;;72.78;37.83;;;;;;;0.75;100.00;100913.42;1719815;83;21063;-67
2022/11/09 05:10:22;;;;;;;74.75;39.80;;;;;;;0.72;100.00;100913.38;1720239;83;21136;-66
2022/11/09 05:12:49;;;;;;;78.87;40.98;;;;;;;0.73;100.00;100920.30;1720237;83;21092;-66
2022/11/09 05:15:15;;;;;;;72.97;38.28;;;;;;;0.71;100.00;100917.67;1681027;85;21603;-65
2022/11/09 05:17:43;;;;;;;79.75;41.45;;;;;;;0.74;100.00;100924.66;1680551;85;21500;-65
2022/11/09 05:20:11;;;;;;;70.05;37.65;;;;;;;0.76;100.00;100924.22;1672506;85;21054;-65
2022/11/09 05:25:25;;;;;;;72.90;40.35;;;;;;;0.76;100.00;100934.59;1679355;85;21894;-66
2022/11/09 05:27:54;;;;;;;63.08;32.73;;;;;;;0.79;100.00;100934.66;1680708;85;21588;-66
2022/11/09 05:30:21;;;;;;;75.85;41.20;;;;;;;0.82;100.00;100933.41;1680743;85;21112;-66
2022/11/09 05:32:48;;;;;;;77.15;40.03;;;;;;;0.96;100.00;100938.37;1673135;85;21130;-66
2022/11/09 05:35:15;;;;;;;71.15;37.48;;;;;;;0.92;100.00;100940.50;1680397;85;21187;-66
2022/11/09 05:37:42;;;;;;;77.03;39.18;;;;;;;1.02;100.00;100941.07;1673882;85;21125;-66
2022/11/09 05:40:10;;;;;;;61.63;34.25;;;;;;;1.11;100.00;100949.84;1656832;85;21074;-66
2022/11/09 05:42:39;;;;;;;70.05;37.48;;;;;;;1.15;100.00;100951.21;1679625;85;21608;-66
2022/11/09 05:45:10;;;;;;;70.78;36.95;;;;;;;1.18;100.00;100955.57;1660852;85;21105;-67
2022/11/09 05:47:41;;;;;;;66.45;33.90;;;;;;;1.26;100.00;100959.13;1676885;84;21129;-66
2022/11/09 05:50:12;;;;;;;69.85;37.25;;;;;;;1.37;100.00;100956.27;1674418;84;21671;-65
2022/11/09 05:52:38;;;;;;;72.92;39.08;;;;;;;1.49;100.00;100954.69;1674917;84;21069;-65
2022/11/09 05:55:06;;;;;;;60.98;34.43;;;;;;;1.58;100.00;100960.86;1674584;84;21580;-66
2022/11/09 05:57:32;;;;;;;80.05;40.73;;;;;;;1.69;100.00;100970.10;1674830;84;21540;-65
2022/11/09 06:00:00;;;;;;;60.25;32.00;;;;;;;1.68;100.00;100974.86;1674421;84;21190;-67
2022/11/09 06:05:37;;;;;;;86.00;45.47;;;;;;;1.27;100.00;100977.77;1795755;79;22517;-67
2022/11/09 06:08:11;;;;;;;76.45;41.18;;;;;;;1.91;100.00;100966.05;1756322;81;21084;-66
2022/11/09 06:10:39;;;;;;;151.87;56.98;;;;;;;2.45;100.00;100970.52;1756328;81;21136;-68
2022/11/09 06:13:06;;;;;;;109.60;55.03;;;;;;;4.01;100.00;100964.58;1756692;81;21018;-66
2022/11/09 06:15:33;;;;;;;79.82;45.78;;;;;;;4.01;100.00;100964.58;1756264;81;21065;-67
2022/11/09 06:18:00;;;;;;;68.28;40.83;;;;;;;4.76;100.00;100960.77;1756318;81;21020;-67
2022/11/09 06:20:27;;;;;;;65.97;39.13;;;;;;;5.59;100.00;100958.91;1756315;81;20974;-66
2022/11/09 06:23:00;;;;;;;57.80;35.90;;;;;;;6.43;100.00;100962.01;1756333;81;22207;-66
2022/11/09 06:25:30;;;;;;;54.33;32.40;;;;;;;7.18;100.00;100960.09;1756136;81;20998;-67
2022/11/09 06:27:57;;;;;;;51.02;31.25;;;;;;;8.02;100.00;100963.48;1756387;81;21062;-67
2022/11/09 06:30:24;;;;;;;45.38;29.12;;;;;;;8.94;100.00;100962.13;1756249;81;21081;-66
2022/11/09 06:32:51;;;;;;;41.23;27.25;;;;;;;9.63;100.00;100963.48;1756421;81;21551;-67
2022/11/09 06:35:17;;;;;;;44.80;27.75;;;;;;;10.27;100.00;100957.31;1756256;81;21088;-67
2022/11/09 06:37:44;;;;;;;40.88;25.95;;;;;;;10.87;100.00;100959.88;1756200;81;21053;-67
2022/11/09 06:40:13;;;;;;;39.92;27.00;;;;;;;11.54;100.00;100953.27;1756132;81;21073;-67
2022/11/09 06:42:39;;;;;;;35.73;23.67;;;;;;;12.24;100.00;100949.95;1756854;81;21018;-67
2022/11/09 06:45:08;;;;;;;40.12;25.05;;;;;;;12.83;100.00;100952.93;1753140;81;21112;-68
2022/11/09 06:47:35;;;;;;;41.53;27.90;;;;;;;13.22;100.00;100952.88;1724957;82;21096;-68
2022/11/09 06:50:03;;;;;;;32.73;23.85;;;;;;;13.57;100.00;100956.12;1720349;83;21076;-67
2022/11/09 06:52:30;;;;;;;30.40;21.50;;;;;;;13.91;100.00;100956.17;1720520;83;21080;-67
2022/11/09 06:54:58;;;;;;;31.73;22.35;;;;;;;14.26;100.00;100952.63;1720378;83;21655;-66
2022/11/09 06:57:25;;;;;;;34.55;22.98;;;;;;;14.75;100.00;100957.80;1720723;83;21554;-68
2022/11/09 06:59:51;;;;;;;34.20;23.90;;;;;;;15.15;99.41;100955.64;1692131;83;21564;-68
2022/11/09 07:02:18;;;;;;;38.88;25.50;;;;;;;15.53;94.86;100950.47;1720351;83;21080;-66
2022/11/09 07:04:45;;;;;;;37.05;25.75;;;;;;;15.89;91.39;100951.08;1720626;83;21097;-68
2022/11/09 07:07:12;;;;;;;35.00;23.30;;;;;;;16.02;90.52;100953.56;1720836;83;21151;-67
2022/11/09 07:09:39;;;;;;;34.45;24.43;;;;;;;16.38;87.24;100957.20;1721099;83;21069;-66
2022/11/09 07:12:06;;;;;;;37.88;24.00;;;;;;;16.71;73.02;100953.39;1721262;83;21277;-68
2022/11/09 07:14:32;;;;;;;36.73;25.40;;;;;;;16.76;72.33;100949.55;1720838;83;21659;-68
2022/11/09 07:16:59;;;;;;;39.50;24.47;;;;;;;17.05;68.68;100956.58;1720591;83;21151;-69
2022/11/09 07:19:25;;;;;;;34.65;24.85;;;;;;;17.35;66.34;100944.81;1720441;83;21052;-68
2022/11/09 07:21:53;;;;;;;35.33;25.55;;;;;;;17.52;59.43;100952.39;1720334;83;21072;-68
2022/11/09 07:24:21;;;;;;;31.30;23.95;;;;;;;17.51;57.07;100943.54;1720648;83;21146;-68
2022/11/09 07:26:48;;;;;;;30.35;22.25;;;;;;;17.67;55.68;100947.58;1720470;83;21069;-68
2022/11/09 07:29:15;;;;;;;34.20;24.77;;;;;;;17.73;55.92;100945.05;1720603;83;21583;-67
2022/11/09 07:31:42;;;;;;;35.68;23.40;;;;;;;18.06;55.81;100937.51;1713466;83;21088;-68
2022/11/09 07:34:08;;;;;;;28.95;21.17;;;;;;;18.39;55.88;100940.96;1696983;84;21540;-68
2022/11/09 07:36:35;;;;;;;29.50;20.80;;;;;;;18.59;53.79;100941.16;1696796;84;21148;-67
2022/11/09 07:39:03;;;;;;;38.58;24.27;;;;;;;18.76;51.86;100936.17;1696722;84;21069;-68
2022/11/09 07:41:29;;;;;;;38.73;26.97;;;;;;;18.53;51.41;100945.51;1696975;84;21065;-67
2022/11/09 07:43:57;;;;;;;36.90;26.30;;;;;;;18.43;50.70;100940.33;1697823;83;21494;-67
2022/11/09 07:46:24;;;;;;;41.15;27.20;;;;;;;18.30;50.97;100936.62;1720351;82;21592;-69
2022/11/09 07:48:51;;;;;;;38.78;25.12;;;;;;;17.93;51.30;100944.01;1720413;83;21245;-68
2022/11/09 07:51:18;;;;;;;35.10;23.87;;;;;;;17.91;51.14;100943.23;1720480;83;21109;-68
2022/11/09 07:53:45;;;;;;;34.67;22.85;;;;;;;18.02;52.80;100943.50;1720234;83;21076;-69
2022/11/09 07:56:11;;;;;;;27.42;18.45;;;;;;;18.38;50.93;100942.37;1720449;82;21068;-68
2022/11/09 07:58:38;;;;;;;26.57;18.20;;;;;;;18.40;50.17;100943.14;1720577;83;21040;-68
2022/11/09 08:01:08;;;;;;;27.15;18.02;;;;;;;18.29;50.77;100940.22;1720461;83;21410;-67
2022/11/09 08:03:35;;;;;;;26.00;15.32;;;;;;;18.40;50.92;100943.14;1720293;83;21034;-69
2022/11/09 08:06:02;;;;;;;25.08;15.80;;;;;;;18.42;49.75;100936.77;1707980;83;21072;-67
2022/11/09 08:08:29;;;;;;;33.58;18.00;;;;;;;18.09;50.46;100939.55;1706894;83;21093;-68
2022/11/09 08:10:57;;;;;;;19.00;15.60;;;;;;;18.17;51.36;100931.97;1707292;84;21042;-68
2022/11/09 08:13:23;;;;;;;20.57;13.98;;;;;;;18.47;51.09;100935.66;1707079;84;21731;-68
2022/11/09 08:15:50;;;;;;;21.40;14.10;;;;;;;18.72;49.59;100935.11;1707047;83;21097;-68
2022/11/09 08:18:19;;;;;;;20.60;13.88;;;;;;;18.76;49.20;100935.32;1707089;84;21138;-69
2022/11/09 08:20:45;;;;;;;16.97;12.68;;;;;;;18.91;48.94;100935.80;1707096;84;21038;-68
2022/11/09 08:23:14;;;;;;;21.30;13.40;;;;;;;18.79;48.07;100933.83;1707296;83;21168;-69
2022/11/09 08:25:42;;;;;;;18.33;13.50;;;;;;;18.84;48.54;100936.62;1707460;84;21089;-68
2022/11/09 08:28:08;;;;;;;18.40;13.18;;;;;;;19.29;48.22;100932.63;1707335;84;21620;-70
2022/11/09 08:30:36;;;;;;;17.15;12.65;;;;;;;19.44;47.31;100930.81;1706980;83;21061;-68
2022/11/09 08:33:03;;;;;;;16.77;10.40;;;;;;;19.55;47.35;100931.02;1707104;84;21552;-70
2022/11/09 08:35:30;;;;;;;15.50;10.18;;;;;;;19.86;46.03;100931.34;1706941;84;21100;-69
2022/11/09 08:38:01;;;;;;;14.60;8.40;;;;;;;20.10;45.04;100927.56;1707093;84;21322;-69
2022/11/09 08:40:31;;;;;;;13.15;7.90;;;;;;;20.25;44.10;100929.75;1707305;83;21066;-70
2022/11/09 08:43:03;;;;;;;11.75;7.85;;;;;;;20.44;43.50;100932.56;1707131;84;21062;-68
2022/11/09 08:45:35;;;;;;;10.93;7.00;;;;;;;20.33;43.04;100930.58;1710942;82;21104;-69
2022/11/09 08:48:02;;;;;;;10.03;6.37;;;;;;;20.41;43.12;100924.75;1712960;82;21026;-68
2022/11/09 08:50:32;;;;;;;12.50;7.60;;;;;;;20.66;42.13;100922.19;1712872;83;21101;-69
2022/11/09 08:53:00;;;;;;;11.05;6.45;;;;;;;20.80;42.23;100916.37;1712819;83;21042;-69
2022/11/09 08:55:27;;;;;;;9.50;5.78;;;;;;;20.84;40.96;100923.23;1712948;82;21057;-69
2022/11/09 08:57:55;;;;;;;12.28;5.97;;;;;;;20.67;41.45;100910.52;1713197;82;21630;-68
2022/11/09 09:00:22;;;;;;;13.65;7.05;;;;;;;20.31;41.20;100910.64;1712968;83;21062;-68
2022/11/09 09:02:50;;;;;;;12.37;6.40;;;;;;;20.24;41.25;100904.43;1713150;83;21087;-68
2022/11/09 09:05:17;;;;;;;13.13;6.58;;;;;;;20.11;42.22;100908.40;1719021;82;21045;-68
2022/11/09 09:07:45;;;;;;;10.43;6.50;;;;;;;20.26;41.87;100910.55;1726021;82;21072;-69
2022/11/09 09:10:12;;;;;;;9.15;5.83;;;;;;;20.43;41.97;100906.75;1726174;82;21373;-68
2022/11/09 09:12:41;;;;;;;11.33;5.83;;;;;;;20.64;41.60;100909.88;1725993;82;21048;-69
2022/11/09 09:15:08;;;;;;;10.13;6.28;;;;;;;20.91;40.36;100908.47;1726037;83;21430;-69
2022/11/09 09:17:35;;;;;;;11.40;7.45;;;;;;;20.95;40.70;100911.33;1726011;83;21002;-69
2022/11/09 09:20:02;;;;;;;10.88;7.90;;;;;;;21.19;41.31;100902.56;1726114;82;21085;-68
2022/11/09 09:22:31;;;;;;;10.72;7.55;;;;;;;21.72;40.33;100897.98;1725748;82;21113;-68
2022/11/09 09:24:57;;;;;;;12.65;7.10;;;;;;;22.24;39.36;100893.35;1726046;82;21116;-69
2022/11/09 09:27:24;;;;;;;9.75;6.50;;;;;;;22.49;38.22;100888.36;1725955;82;21173;-71
2022/11/09 09:29:56;;;;;;;14.13;7.53;;;;;;;22.45;37.93;100886.87;1726054;82;21312;-69
2022/11/09 09:32:22;;;;;;;10.98;6.62;;;;;;;22.21;38.12;100889.07;1725602;83;21069;-69
2022/11/09 09:34:49;;;;;;;11.53;7.20;;;;;;;22.31;37.91;100883.88;1725691;82;21065;-69
2022/11/09 09:37:16;;;;;;;9.40;6.50;;;;;;;22.16;37.95;100884.02;1725732;82;20994;-69
2022/11/09 09:39:43;;;;;;;10.93;7.50;;;;;;;22.04;37.97;100885.39;1725974;83;21159;-68
2022/11/09 09:42:30;;;;;;;12.68;7.37;;;;;;;22.10;38.30;100882.27;1725770;83;21036;-69
2022/11/09 09:45:20;;;;;;;7.67;5.60;;;;;;;22.32;37.80;100881.09;1710677;82;21563;-68
2022/11/09 09:48:17;;;;;;;7.55;5.10;;;;;;;21.92;36.96;100875.92;1691235;84;21093;-68
2022/11/09 09:50:51;;;;;;;8.53;5.05;;;;;;;21.22;37.13;100884.47;1691503;84;21084;-70
2022/11/09 09:53:46;;;;;;;7.33;4.42;;;;;;;20.67;38.29;100886.42;1690268;84;21218;-69
2022/11/09 09:56:24;;;;;;;11.03;4.33;;;;;;;20.67;38.50;100877.55;1691570;84;21124;-69
2022/11/09 09:58:59;;;;;;;7.55;4.45;;;;;;;20.56;37.98;100874.24;1691512;84;21068;-69
2022/11/09 10:01:34;;;;;;;11.65;4.83;;;;;;;20.29;38.64;100876.45;1685191;83;21086;-68
2022/11/09 10:04:00;;;;;;;8.28;4.65;;;;;;;20.51;38.76;100875.86;1690778;84;21057;-69
2022/11/09 10:07:17;;;;;;;6.80;4.30;;;;;;;20.82;38.36;100872.95;1680616;84;21140;-69
2022/11/09 10:10:20;;;;;;;7.85;4.35;;;;;;;21.01;38.07;100877.94;1678575;85;21109;-68
2022/11/09 10:13:13;;;;;;;8.83;4.87;;;;;;;21.06;37.71;100871.28;1678448;85;21061;-69
2022/11/09 14:27:59;;;;;;;24.47;13.43;;;;;;;9.83;86.94;100822.34;1818317;78;28628;-67
2022/11/09 14:30:45;;;;;;;29.20;15.03;;;;;;;9.81;86.56;100826.77;1791272;80;21608;-68
2022/11/09 14:33:34;;;;;;;25.05;12.90;;;;;;;9.78;86.65;100826.85;1791270;80;21228;-67
2022/11/09 14:36:20;;;;;;;31.95;15.53;;;;;;;9.71;87.17;100828.32;1791268;80;21088;-67
2022/11/09 14:39:12;;;;;;;31.30;15.93;;;;;;;9.68;88.19;100831.89;1791006;80;20977;-66
2022/11/09 14:41:58;;;;;;;30.52;16.52;;;;;;;9.61;87.90;100837.73;1791048;80;21064;-67
2022/11/09 14:44:43;;;;;;;25.25;15.53;;;;;;;9.55;88.34;100838.34;1786796;80;21016;-66
2022/11/09 14:47:33;;;;;;;31.93;18.87;;;;;;;9.44;89.53;100839.41;1778468;80;21684;-66
2022/11/09 14:50:23;;;;;;;34.80;17.87;;;;;;;9.41;89.87;100837.31;1778762;80;20972;-67
2022/11/09 14:53:25;;;;;;;39.50;20.45;;;;;;;9.31;90.96;100835.30;1741479;82;21086;-66
2022/11/09 14:56:09;;;;;;;41.05;20.08;;;;;;;9.23;91.93;100835.47;1725861;83;21053;-67
2022/11/09 14:58:54;;;;;;;34.53;18.50;;;;;;;9.20;93.04;100841.22;1726118;83;21053;-68
2022/11/09 15:01:42;;;;;;;34.55;18.32;;;;;;;9.10;93.99;100836.60;1726134;83;21084;-67
2022/11/09 15:04:28;;;;;;;40.95;21.50;;;;;;;9.07;94.35;100841.06;1702537;83;21018;-66
2022/11/09 15:07:17;;;;;;;39.38;20.37;;;;;;;9.05;94.33;100844.17;1726044;83;21049;-66
2022/11/09 15:10:09;;;;;;;41.15;21.35;;;;;;;9.02;95.33;100851.66;1725725;83;21589;-66
2022/11/09 15:12:59;;;;;;;35.78;19.48;;;;;;;9.11;95.63;100853.23;1726205;83;21108;-66
2022/11/09 15:15:52;;;;;;;45.63;21.48;;;;;;;9.08;94.81;100849.36;1725871;83;21282;-66
2022/11/09 15:18:43;;;;;;;34.95;18.48;;;;;;;8.98;95.16;100845.59;1706503;83;21016;-67
2022/11/09 15:21:35;;;;;;;39.53;20.25;;;;;;;8.92;95.66;100845.70;1697048;84;21072;-67
2022/11/09 15:24:21;;;;;;;35.23;20.45;;;;;;;8.78;97.50;100849.03;1696832;84;21037;-67
2022/11/09 15:27:27;;;;;;;36.08;20.48;;;;;;;8.81;97.39;100848.97;1696983;84;20998;-67
2022/11/09 15:30:33;;;;;;;29.50;17.50;;;;;;;8.74;98.02;100847.34;1696649;84;21164;-67
2022/11/09 15:33:25;;;;;;;34.33;18.95;;;;;;;8.66;99.07;100847.95;1692254;84;21036;-67
2022/11/09 15:36:31;;;;;;;30.23;16.73;;;;;;;8.59;100.00;100844.11;1696582;84;21104;-68
2022/11/09 15:39:18;;;;;;;36.60;18.62;;;;;;;8.60;100.00;100843.23;1696504;84;21088;-67
2022/11/09 15:42:04;;;;;;;34.88;17.15;;;;;;;8.57;100.00;100841.95;1696580;84;21040;-68
2022/11/09 15:44:55;;;;;;;34.10;18.55;;;;;;;8.50;100.00;100827.20;1701021;84;21079;-68
2022/11/09 15:47:51;;;;;;;42.50;19.57;;;;;;;8.48;100.00;100827.67;1708086;84;21181;-68